Time;durP1;ratioP1;P1;durP2;ratioP2;P2;SDS_P1;SDS_P2;PMS_P1;PMS_P2;Temp;Humidity;BMP_temperature;BMP_pressure;BME280_temperature;BME280_humidity;BME280_pressure;Samples;Min_cycle;Max_cycle;Signal;HPM_P1;HPM_P2
2022/10/28 00:00:28;;;;;;;16.30;8.80;;;;;;;;;;103570;1304;24314;-85
2022/10/28 00:03:14;;;;;;;15.60;8.40;;;;;;;;;;103515;1306;22957;-83
2022/10/28 00:05:41;;;;;;;22.70;8.70;;;;;;;;;;103541;1306;25317;-82
2022/10/28 00:08:07;;;;;;;20.90;8.70;;;;;;;;;;103535;1307;25360;-84
2022/10/28 00:10:34;;;;;;;19.20;7.90;;;;;;;;;;103551;1299;25331;-82
2022/10/28 00:13:01;;;;;;;18.90;8.90;;;;;;;;;;103536;1306;25253;-87
2022/10/28 00:15:27;;;;;;;17.70;8.80;;;;;;;;;;103502;1306;22483;-81
2022/10/28 00:17:54;;;;;;;19.10;8.70;;;;;;;;;;103512;1307;25191;-82
2022/10/28 00:20:20;;;;;;;15.30;7.80;;;;;;;;;;103508;1307;22488;-87
2022/10/28 00:22:47;;;;;;;14.20;8.00;;;;;;;;;;103565;1307;24171;-84
2022/10/28 00:25:13;;;;;;;16.50;8.00;;;;;;;;;;103523;1306;22426;-86
2022/10/28 00:27:40;;;;;;;14.10;7.40;;;;;;;;;;103488;1306;22478;-86
2022/10/28 00:30:07;;;;;;;16.30;7.70;;;;;;;;;;103492;1307;22466;-83
2022/10/28 00:32:33;;;;;;;17.00;8.10;;;;;;;;;;103486;1306;24362;-83
2022/10/28 00:35:00;;;;;;;17.70;8.80;;;;;;;;;;103317;1301;22579;-82
2022/10/28 00:37:26;;;;;;;19.00;8.70;;;;;;;;;;103537;1306;25353;-84
2022/10/28 00:39:53;;;;;;;15.50;8.10;;;;;;;;;;103524;1307;22628;-88
2022/10/28 00:42:21;;;;;;;17.10;8.40;;;;;;;;;;103570;1307;22729;-81
2022/10/28 00:44:52;;;;;;;14.00;7.90;;;;;;;;;;103784;1307;24262;-85
2022/10/28 00:47:38;;;;;;;13.30;7.30;;;;;;;;;;103479;1303;22523;-88
2022/10/28 00:50:21;;;;;;;16.50;6.70;;;;;;;;;;103445;1307;25289;-86
2022/10/28 00:52:51;;;;;;;18.20;7.00;;;;;;;;;;103532;1306;23051;-83
2022/10/28 00:55:18;;;;;;;14.20;7.00;;;;;;;;;;103439;1307;24233;-84
2022/10/28 00:57:45;;;;;;;14.60;7.70;;;;;;;;;;103448;1306;25781;-81
2022/10/28 01:00:12;;;;;;;11.40;6.70;;;;;;;;;;103369;1299;25270;-81
2022/10/28 01:02:46;;;;;;;11.50;6.50;;;;;;;;;;103528;1307;24816;-85
2022/10/28 01:05:14;;;;;;;15.60;6.40;;;;;;;;;;103664;1307;24237;-82
2022/10/28 01:07:41;;;;;;;12.70;6.10;;;;;;;;;;103496;1298;22481;-85
2022/10/28 01:10:08;;;;;;;12.00;6.00;;;;;;;;;;103520;1291;25287;-84
2022/10/28 01:12:54;;;;;;;14.60;6.80;;;;;;;;;;103479;1306;25193;-83
2022/10/28 01:15:36;;;;;;;11.60;6.30;;;;;;;;;;103566;1306;26541;-84
2022/10/28 01:18:08;;;;;;;16.20;7.20;;;;;;;;;;103584;1305;22476;-88
2022/10/28 01:20:56;;;;;;;13.00;6.40;;;;;;;;;;103545;1299;24368;-86
2022/10/28 01:23:31;;;;;;;14.60;5.90;;;;;;;;;;103506;1305;22485;-86
2022/10/28 01:26:05;;;;;;;12.20;6.90;;;;;;;;;;103486;1306;24279;-85
2022/10/28 01:29:01;;;;;;;12.30;7.10;;;;;;;;;;103525;1306;25247;-81
2022/10/28 01:31:34;;;;;;;12.50;7.10;;;;;;;;;;103436;1306;22464;-85
2022/10/28 01:34:04;;;;;;;13.10;6.80;;;;;;;;;;103518;1306;22471;-87
2022/10/28 01:36:30;;;;;;;15.10;7.70;;;;;;;;;;103377;1306;22468;-81
2022/10/28 01:39:05;;;;;;;13.90;7.30;;;;;;;;;;103549;1306;22460;-82
2022/10/28 01:41:38;;;;;;;15.60;6.70;;;;;;;;;;103510;1301;25285;-85
2022/10/28 01:44:05;;;;;;;11.90;6.90;;;;;;;;;;103538;1305;22479;-83
2022/10/28 01:46:44;;;;;;;11.80;6.40;;;;;;;;;;103512;1305;25246;-84
2022/10/28 01:49:23;;;;;;;13.70;6.60;;;;;;;;;;103507;1306;25340;-86
2022/10/28 01:51:51;;;;;;;12.60;6.80;;;;;;;;;;103528;1305;24301;-82
2022/10/28 01:54:20;;;;;;;13.70;7.30;;;;;;;;;;103483;1306;25352;-80
2022/10/28 01:56:47;;;;;;;14.70;7.20;;;;;;;;;;103507;1306;22588;-83
2022/10/28 01:59:25;;;;;;;14.00;6.70;;;;;;;;;;103446;1303;24503;-84
2022/10/28 02:01:52;;;;;;;12.60;6.90;;;;;;;;;;103449;1306;23900;-83
2022/10/28 02:04:19;;;;;;;14.90;6.60;;;;;;;;;;103560;1303;22472;-82
2022/10/28 02:06:49;;;;;;;12.60;6.60;;;;;;;;;;103511;1306;24181;-80
2022/10/28 02:09:23;;;;;;;11.50;6.20;;;;;;;;;;103545;1306;26587;-83
2022/10/28 02:11:58;;;;;;;11.70;6.50;;;;;;;;;;103622;1306;22523;-81
2022/10/28 02:14:38;;;;;;;12.80;7.00;;;;;;;;;;103509;1306;24473;-81
2022/10/28 02:17:23;;;;;;;12.10;7.00;;;;;;;;;;103512;1306;24240;-88
2022/10/28 02:19:53;;;;;;;14.10;6.90;;;;;;;;;;103536;1305;22663;-82
2022/10/28 02:22:29;;;;;;;13.90;6.40;;;;;;;;;;103539;1305;22566;-84
2022/10/28 02:25:02;;;;;;;13.10;6.20;;;;;;;;;;103535;1298;23187;-84
2022/10/28 02:27:31;;;;;;;13.90;6.90;;;;;;;;;;103538;1307;23859;-83
2022/10/28 02:30:01;;;;;;;12.60;6.90;;;;;;;;;;103527;1306;22487;-88
2022/10/28 02:32:30;;;;;;;12.60;6.80;;;;;;;;;;103484;1300;22437;-82
2022/10/28 02:34:58;;;;;;;15.60;7.50;;;;;;;;;;103408;1306;25264;-87
2022/10/28 02:37:28;;;;;;;14.30;7.10;;;;;;;;;;103558;1306;25338;-82
2022/10/28 02:40:01;;;;;;;13.40;6.90;;;;;;;;;;103466;1306;22587;-88
2022/10/28 02:42:34;;;;;;;16.60;7.00;;;;;;;;;;103534;1306;23286;-84
2022/10/28 02:45:07;;;;;;;17.50;6.70;;;;;;;;;;103523;1305;22507;-85
2022/10/28 02:47:36;;;;;;;12.90;6.50;;;;;;;;;;103520;1306;25281;-85
2022/10/28 02:50:04;;;;;;;11.90;6.20;;;;;;;;;;103567;1297;23117;-84
2022/10/28 02:52:32;;;;;;;13.20;6.90;;;;;;;;;;103544;1306;25305;-86
2022/10/28 02:55:00;;;;;;;14.70;7.20;;;;;;;;;;103533;1306;22514;-83
2022/10/28 02:57:28;;;;;;;14.20;7.50;;;;;;;;;;103504;1307;22498;-81
2022/10/28 02:59:56;;;;;;;10.80;6.30;;;;;;;;;;103422;1306;24249;-86
2022/10/28 03:02:23;;;;;;;11.90;6.10;;;;;;;;;;103487;1303;22566;-84
2022/10/28 03:04:49;;;;;;;12.60;6.50;;;;;;;;;;103553;1306;25387;-82
2022/10/28 03:07:16;;;;;;;12.50;6.10;;;;;;;;;;103473;1306;22475;-81
2022/10/28 03:09:43;;;;;;;10.80;5.70;;;;;;;;;;103499;1306;22473;-87
2022/10/28 03:12:10;;;;;;;11.90;6.10;;;;;;;;;;103476;1306;22526;-85
2022/10/28 03:14:36;;;;;;;11.70;5.50;;;;;;;;;;103527;1306;23879;-88
2022/10/28 03:17:03;;;;;;;10.30;6.10;;;;;;;;;;103505;1306;22588;-83
2022/10/28 03:19:29;;;;;;;11.30;6.00;;;;;;;;;;103466;1306;22465;-82
2022/10/28 03:21:56;;;;;;;11.20;6.20;;;;;;;;;;103528;1292;22427;-83
2022/10/28 03:24:22;;;;;;;11.80;5.70;;;;;;;;;;103533;1306;25362;-86
2022/10/28 03:33:50;;;;;;;12.50;6.10;;;;;;;;;;100344;1342;545597;-85
2022/10/28 03:36:16;;;;;;;12.20;5.90;;;;;;;;;;102391;1317;22514;-85
2022/10/28 03:38:43;;;;;;;11.20;5.60;;;;;;;;;;102526;1317;22001;-82
2022/10/28 03:41:09;;;;;;;11.40;5.80;;;;;;;;;;102568;1316;22491;-87
2022/10/28 03:43:37;;;;;;;11.30;5.00;;;;;;;;;;102516;1319;23991;-84
2022/10/28 03:46:05;;;;;;;11.80;5.40;;;;;;;;;;103147;1304;22486;-82
2022/10/28 03:48:32;;;;;;;9.40;5.10;;;;;;;;;;103233;1307;158275;-83
2022/10/28 03:50:58;;;;;;;11.10;5.40;;;;;;;;;;103471;1307;25316;-86
2022/10/28 03:53:25;;;;;;;10.60;5.30;;;;;;;;;;103587;1307;22479;-86
2022/10/28 03:55:56;;;;;;;10.80;5.60;;;;;;;;;;103661;1307;22476;-84
2022/10/28 03:58:22;;;;;;;12.80;5.70;;;;;;;;;;103549;1307;24441;-82
2022/10/28 04:00:50;;;;;;;12.80;6.20;;;;;;;;;;103477;1290;22474;-84
2022/10/28 04:03:17;;;;;;;13.40;6.20;;;;;;;;;;103654;1307;25159;-86
2022/10/28 04:05:44;;;;;;;12.00;6.30;;;;;;;;;;103367;1307;23840;-83
2022/10/28 04:08:11;;;;;;;12.00;6.20;;;;;;;;;;103543;1307;23847;-87
2022/10/28 04:10:37;;;;;;;11.80;6.40;;;;;;;;;;103272;1307;25387;-82
2022/10/28 04:13:05;;;;;;;12.90;6.40;;;;;;;;;;103328;1307;22459;-84
2022/10/28 04:15:32;;;;;;;14.10;6.10;;;;;;;;;;103500;1305;24234;-82
2022/10/28 04:17:58;;;;;;;13.60;6.50;;;;;;;;;;103522;1307;25471;-85
2022/10/28 04:20:25;;;;;;;11.90;6.30;;;;;;;;;;103507;1307;25240;-84
2022/10/28 04:22:53;;;;;;;11.70;5.90;;;;;;;;;;103519;1307;25373;-85
2022/10/28 04:25:21;;;;;;;13.10;5.90;;;;;;;;;;103387;1307;22510;-86
2022/10/28 04:27:47;;;;;;;15.50;6.70;;;;;;;;;;103195;1307;23846;-86
2022/10/28 04:30:14;;;;;;;11.40;5.80;;;;;;;;;;103292;1307;25424;-87
2022/10/28 04:32:41;;;;;;;14.30;6.60;;;;;;;;;;103486;1307;22476;-82
2022/10/28 04:35:08;;;;;;;12.90;6.80;;;;;;;;;;103280;1307;22478;-83
2022/10/28 04:37:35;;;;;;;14.60;6.80;;;;;;;;;;103306;1307;22474;-86
2022/10/28 04:40:02;;;;;;;11.90;6.40;;;;;;;;;;103541;1307;24386;-87
2022/10/28 04:42:28;;;;;;;13.80;6.70;;;;;;;;;;103350;1307;25373;-85
2022/10/28 04:44:55;;;;;;;13.70;6.80;;;;;;;;;;103451;1304;22469;-85
2022/10/28 04:47:22;;;;;;;14.30;6.60;;;;;;;;;;103420;1307;24247;-83
2022/10/28 04:49:49;;;;;;;18.70;6.90;;;;;;;;;;103422;1301;22483;-88
2022/10/28 04:52:16;;;;;;;15.00;7.30;;;;;;;;;;103589;1304;22463;-85
2022/10/28 04:54:43;;;;;;;16.10;6.90;;;;;;;;;;103587;1305;22484;-80
2022/10/28 04:57:09;;;;;;;14.40;7.40;;;;;;;;;;103573;1306;25232;-82
2022/10/28 04:59:36;;;;;;;16.50;6.80;;;;;;;;;;103562;1304;26459;-86
2022/10/28 05:02:03;;;;;;;11.90;7.00;;;;;;;;;;106753;1301;22060;-81
2022/10/28 05:04:30;;;;;;;14.20;6.40;;;;;;;;;;107052;1289;22123;-81
2022/10/28 05:06:56;;;;;;;13.60;6.70;;;;;;;;;;106932;1305;21988;-80
2022/10/28 05:09:23;;;;;;;14.20;6.10;;;;;;;;;;107135;1291;22050;-81
2022/10/28 05:11:50;;;;;;;13.50;7.00;;;;;;;;;;106750;1302;22090;-81
2022/10/28 05:14:17;;;;;;;10.80;6.00;;;;;;;;;;106948;1306;22717;-81
2022/10/28 05:16:44;;;;;;;13.20;6.60;;;;;;;;;;106864;1306;22141;-81
2022/10/28 05:19:10;;;;;;;14.30;6.60;;;;;;;;;;106905;1306;22063;-81
2022/10/28 05:21:37;;;;;;;13.00;6.50;;;;;;;;;;106844;1306;22065;-82
2022/10/28 05:24:04;;;;;;;14.00;6.70;;;;;;;;;;106765;1306;22135;-82
2022/10/28 05:26:32;;;;;;;12.10;6.60;;;;;;;;;;106911;1306;22683;-81
2022/10/28 05:28:58;;;;;;;15.60;6.50;;;;;;;;;;106791;1307;22720;-81
2022/10/28 05:31:25;;;;;;;15.40;6.50;;;;;;;;;;107057;1306;22066;-82
2022/10/28 05:33:52;;;;;;;11.80;6.30;;;;;;;;;;106815;1307;21986;-80
2022/10/28 05:36:21;;;;;;;14.80;7.60;;;;;;;;;;106737;1306;22142;-82
2022/10/28 05:38:48;;;;;;;12.70;6.60;;;;;;;;;;106901;1306;22108;-81
2022/10/28 05:41:15;;;;;;;13.90;6.50;;;;;;;;;;106929;1306;22115;-81
2022/10/28 05:43:42;;;;;;;14.50;6.40;;;;;;;;;;106934;1305;22117;-82
2022/10/28 05:46:09;;;;;;;11.70;6.10;;;;;;;;;;107225;1282;22077;-82
2022/10/28 05:48:37;;;;;;;14.60;6.60;;;;;;;;;;106939;1306;22093;-81
2022/10/28 05:51:03;;;;;;;15.60;6.80;;;;;;;;;;106916;1306;22152;-82
2022/10/28 05:53:30;;;;;;;13.40;6.40;;;;;;;;;;106867;1301;22087;-81
2022/10/28 05:55:57;;;;;;;15.50;7.30;;;;;;;;;;106912;1305;21974;-81
2022/10/28 05:58:24;;;;;;;14.60;6.40;;;;;;;;;;106941;1306;22097;-81
2022/10/28 06:00:50;;;;;;;16.50;7.00;;;;;;;;;;106758;1306;21974;-81
2022/10/28 06:03:17;;;;;;;15.20;6.40;;;;;;;;;;106917;1302;22548;-80
2022/10/28 06:05:45;;;;;;;14.90;6.10;;;;;;;;;;106912;1306;21838;-81
2022/10/28 06:08:12;;;;;;;13.00;6.20;;;;;;;;;;106947;1306;22096;-81
2022/10/28 06:10:39;;;;;;;12.40;6.00;;;;;;;;;;106762;1306;22165;-81
2022/10/28 06:13:06;;;;;;;13.40;6.70;;;;;;;;;;107079;1291;22048;-81
2022/10/28 06:15:32;;;;;;;14.70;6.80;;;;;;;;;;107054;1299;22103;-81
2022/10/28 06:17:59;;;;;;;15.10;6.30;;;;;;;;;;106964;1306;22116;-81
2022/10/28 06:20:26;;;;;;;13.10;5.50;;;;;;;;;;106928;1306;22060;-80
2022/10/28 06:22:53;;;;;;;14.80;5.90;;;;;;;;;;106904;1307;22140;-81
2022/10/28 06:25:21;;;;;;;14.00;5.70;;;;;;;;;;106968;1306;21968;-81
2022/10/28 06:27:51;;;;;;;12.30;5.90;;;;;;;;;;106972;1300;22041;-81
2022/10/28 06:30:18;;;;;;;12.60;5.90;;;;;;;;;;106924;1299;22093;-81
2022/10/28 06:32:44;;;;;;;16.10;6.30;;;;;;;;;;106728;1301;22144;-80
2022/10/28 06:35:11;;;;;;;12.40;5.80;;;;;;;;;;106919;1297;22089;-81
2022/10/28 06:37:37;;;;;;;13.20;5.60;;;;;;;;;;106696;1307;22070;-81
2022/10/28 06:40:04;;;;;;;11.10;4.80;;;;;;;;;;107095;1287;22055;-81
2022/10/28 06:42:31;;;;;;;13.20;5.30;;;;;;;;;;106673;1307;22735;-81
2022/10/28 06:44:58;;;;;;;15.80;5.40;;;;;;;;;;106745;1307;22066;-81
2022/10/28 06:47:25;;;;;;;12.30;5.30;;;;;;;;;;106771;1307;21950;-80
2022/10/28 06:49:51;;;;;;;9.70;4.90;;;;;;;;;;106757;1308;21958;-81
2022/10/28 06:52:18;;;;;;;12.90;4.80;;;;;;;;;;107062;1302;22114;-81
2022/10/28 06:54:44;;;;;;;12.20;4.40;;;;;;;;;;106655;1309;22076;-81
2022/10/28 06:57:11;;;;;;;12.90;4.30;;;;;;;;;;106659;1308;22104;-81
2022/10/28 06:59:37;;;;;;;10.90;4.70;;;;;;;;;;106742;1307;22092;-81
2022/10/28 07:02:10;;;;;;;12.20;4.70;;;;;;;;;;106745;1293;22059;-81
2022/10/28 07:04:37;;;;;;;9.50;4.30;;;;;;;;;;106816;1294;22053;-81
2022/10/28 07:07:04;;;;;;;13.20;4.70;;;;;;;;;;106639;1308;22149;-81
2022/10/28 07:09:30;;;;;;;9.80;4.20;;;;;;;;;;106693;1309;21948;-82
2022/10/28 07:11:57;;;;;;;8.90;3.80;;;;;;;;;;106661;1310;22102;-82
2022/10/28 07:14:23;;;;;;;11.10;4.60;;;;;;;;;;106725;1294;22228;-81
2022/10/28 07:16:50;;;;;;;9.10;3.80;;;;;;;;;;106642;1309;22327;-81
2022/10/28 07:19:16;;;;;;;9.90;4.30;;;;;;;;;;106760;1308;22740;-81
2022/10/28 07:21:43;;;;;;;12.90;4.60;;;;;;;;;;106753;1308;22060;-81
2022/10/28 07:24:10;;;;;;;16.00;4.80;;;;;;;;;;106766;1303;22107;-82
2022/10/28 07:26:36;;;;;;;11.10;3.90;;;;;;;;;;106952;1287;22718;-82
2022/10/28 07:29:03;;;;;;;14.60;4.50;;;;;;;;;;106921;1297;22868;-81
2022/10/28 07:31:30;;;;;;;13.30;4.70;;;;;;;;;;106705;1309;22320;-81
2022/10/28 07:33:57;;;;;;;13.00;4.30;;;;;;;;;;106707;1309;22127;-82
2022/10/28 07:36:23;;;;;;;8.80;4.20;;;;;;;;;;106667;1309;22382;-82
2022/10/28 07:38:51;;;;;;;19.40;5.10;;;;;;;;;;106698;1309;22092;-81
2022/10/28 07:41:19;;;;;;;18.80;5.70;;;;;;;;;;107109;1302;22042;-82
2022/10/28 07:43:46;;;;;;;14.20;5.70;;;;;;;;;;106738;1309;21668;-82
2022/10/28 07:46:13;;;;;;;11.90;5.00;;;;;;;;;;106733;1309;22077;-81
2022/10/28 07:48:39;;;;;;;9.70;4.30;;;;;;;;;;106689;1309;22089;-81
2022/10/28 07:51:09;;;;;;;11.80;4.20;;;;;;;;;;107108;1294;22109;-81
2022/10/28 07:53:36;;;;;;;25.60;16.90;;;;;;;;;;106686;1309;22736;-81
2022/10/28 07:56:04;;;;;;;35.20;24.20;;;;;;;;;;106855;1309;22097;-81
2022/10/28 07:58:31;;;;;;;28.20;13.90;;;;;;;;;;106646;1308;22654;-81
2022/10/28 08:01:05;;;;;;;28.60;7.50;;;;;;;;;;106720;1309;22069;-81
2022/10/28 08:03:32;;;;;;;19.40;6.30;;;;;;;;;;106752;1308;22650;-81
2022/10/28 08:06:03;;;;;;;12.10;5.40;;;;;;;;;;106666;1309;22896;-82
2022/10/28 08:08:29;;;;;;;10.00;4.10;;;;;;;;;;106657;1308;22027;-81
2022/10/28 08:10:56;;;;;;;10.30;3.90;;;;;;;;;;106989;1302;22054;-82
2022/10/28 08:13:22;;;;;;;9.40;3.90;;;;;;;;;;106663;1304;22087;-82
2022/10/28 08:15:53;;;;;;;17.00;3.60;;;;;;;;;;106640;1309;22188;-82
2022/10/28 08:18:20;;;;;;;10.20;3.30;;;;;;;;;;106699;1308;22320;-85
2022/10/28 08:20:47;;;;;;;8.90;2.80;;;;;;;;;;106744;1307;22088;-82
2022/10/28 08:23:14;;;;;;;7.80;2.90;;;;;;;;;;106624;1311;21986;-82
2022/10/28 08:25:48;;;;;;;7.40;2.70;;;;;;;;;;106969;1285;22129;-83
2022/10/28 08:28:14;;;;;;;9.30;3.20;;;;;;;;;;106672;1308;22325;-81
2022/10/28 08:30:40;;;;;;;6.80;2.80;;;;;;;;;;106613;1297;22081;-82
2022/10/28 08:33:07;;;;;;;14.40;3.60;;;;;;;;;;106712;1309;22161;-82
2022/10/28 08:35:36;;;;;;;8.90;2.80;;;;;;;;;;106641;1310;22128;-82
2022/10/28 08:38:03;;;;;;;11.80;3.80;;;;;;;;;;106655;1308;22097;-82
2022/10/28 08:40:34;;;;;;;13.40;3.70;;;;;;;;;;106739;1309;23015;-82
2022/10/28 08:43:07;;;;;;;12.50;3.30;;;;;;;;;;106691;1309;22754;-82
2022/10/28 08:45:33;;;;;;;15.80;4.00;;;;;;;;;;106946;1281;22046;-82
2022/10/28 08:48:19;;;;;;;12.70;3.60;;;;;;;;;;106782;1309;22007;-82
2022/10/28 08:50:49;;;;;;;12.20;3.30;;;;;;;;;;106742;1303;22077;-81
2022/10/28 08:53:22;;;;;;;15.30;4.10;;;;;;;;;;106749;1310;22202;-82
2022/10/28 08:55:50;;;;;;;12.60;2.90;;;;;;;;;;106768;1294;21960;-83
2022/10/28 08:58:23;;;;;;;13.50;3.60;;;;;;;;;;106727;1307;21628;-82
2022/10/28 09:00:51;;;;;;;8.70;2.30;;;;;;;;;;106962;1295;22225;-84
2022/10/28 09:03:21;;;;;;;10.50;2.80;;;;;;;;;;106712;1302;22124;-82
2022/10/28 09:05:49;;;;;;;8.40;3.00;;;;;;;;;;106934;1297;22835;-83
2022/10/28 09:08:28;;;;;;;8.30;2.60;;;;;;;;;;106708;1309;22076;-82
2022/10/28 09:11:21;;;;;;;7.30;2.50;;;;;;;;;;106830;1301;22060;-82
2022/10/28 09:14:06;;;;;;;8.80;2.40;;;;;;;;;;106207;1315;22024;-82
2022/10/28 09:16:46;;;;;;;7.20;2.20;;;;;;;;;;106258;1315;22118;-82
2022/10/28 09:19:22;;;;;;;7.70;2.70;;;;;;;;;;106005;1315;22268;-82
2022/10/28 09:22:07;;;;;;;9.60;2.50;;;;;;;;;;106063;1316;22150;-82
2022/10/28 09:24:36;;;;;;;8.00;2.70;;;;;;;;;;106606;1294;22089;-82
2022/10/28 09:27:16;;;;;;;10.30;2.50;;;;;;;;;;106248;1315;22103;-82
2022/10/28 09:29:42;;;;;;;6.60;2.20;;;;;;;;;;105992;1315;22862;-82
2022/10/28 09:32:18;;;;;;;10.60;2.50;;;;;;;;;;106242;1315;22337;-83
2022/10/28 09:34:49;;;;;;;9.10;2.60;;;;;;;;;;106206;1315;22893;-83
2022/10/28 09:37:18;;;;;;;10.70;3.00;;;;;;;;;;106119;1315;22141;-83
2022/10/28 09:39:50;;;;;;;6.90;2.20;;;;;;;;;;106073;1315;22062;-82
2022/10/28 09:42:26;;;;;;;7.60;2.40;;;;;;;;;;106141;1313;22762;-83
2022/10/28 09:44:57;;;;;;;13.10;2.80;;;;;;;;;;106417;1313;21969;-82
2022/10/28 09:47:27;;;;;;;9.40;3.00;;;;;;;;;;106155;1313;22138;-82
2022/10/28 09:49:55;;;;;;;19.20;3.60;;;;;;;;;;106375;1314;22103;-83
2022/10/28 09:52:23;;;;;;;15.30;2.80;;;;;;;;;;106605;1305;22106;-82
2022/10/28 09:54:51;;;;;;;11.50;2.50;;;;;;;;;;106575;1309;22093;-83
2022/10/28 09:57:19;;;;;;;9.10;2.30;;;;;;;;;;106647;1308;22095;-83
2022/10/28 09:59:46;;;;;;;11.20;3.20;;;;;;;;;;106641;1308;22764;-82
2022/10/28 10:02:23;;;;;;;9.60;3.20;;;;;;;;;;106605;1309;22023;-83
2022/10/28 10:04:50;;;;;;;8.00;2.80;;;;;;;;;;106631;1309;22088;-82
2022/10/28 10:07:27;;;;;;;9.50;2.60;;;;;;;;;;106640;1309;22639;-83
2022/10/28 10:09:56;;;;;;;9.30;2.90;;;;;;;;;;106626;1310;22167;-83
2022/10/28 10:12:23;;;;;;;10.50;3.10;;;;;;;;;;106575;1310;22089;-83
2022/10/28 10:14:52;;;;;;;10.00;2.90;;;;;;;;;;106632;1310;21687;-82
2022/10/28 10:17:29;;;;;;;12.00;3.00;;;;;;;;;;106606;1310;22053;-83
2022/10/28 10:20:09;;;;;;;9.20;2.60;;;;;;;;;;106587;1310;22107;-84
2022/10/28 10:22:41;;;;;;;10.40;3.10;;;;;;;;;;106562;1310;22156;-83
2022/10/28 10:25:18;;;;;;;8.20;2.70;;;;;;;;;;106564;1310;22108;-84
2022/10/28 10:27:51;;;;;;;13.10;2.70;;;;;;;;;;106666;1310;22226;-84
2022/10/28 10:30:45;;;;;;;10.80;2.80;;;;;;;;;;106559;1310;22127;-83
2022/10/28 10:33:20;;;;;;;10.70;2.80;;;;;;;;;;106557;1309;21951;-84
2022/10/28 10:36:00;;;;;;;9.50;2.60;;;;;;;;;;106647;1303;22088;-84
2022/10/28 10:38:27;;;;;;;10.60;2.40;;;;;;;;;;106624;1309;22082;-83
2022/10/28 10:40:55;;;;;;;12.10;2.70;;;;;;;;;;106647;1309;22083;-83
2022/10/28 10:43:22;;;;;;;8.20;2.90;;;;;;;;;;106641;1309;22129;-83
2022/10/28 10:46:01;;;;;;;10.30;2.60;;;;;;;;;;106628;1309;22120;-83
2022/10/28 10:48:31;;;;;;;10.30;2.10;;;;;;;;;;106630;1309;22074;-83
2022/10/28 10:51:03;;;;;;;10.50;2.60;;;;;;;;;;106653;1309;22083;-84
2022/10/28 10:53:32;;;;;;;12.50;3.00;;;;;;;;;;106755;1309;22055;-83
2022/10/28 10:56:02;;;;;;;9.20;2.40;;;;;;;;;;106600;1309;22123;-83
2022/10/28 10:58:34;;;;;;;9.10;2.20;;;;;;;;;;106748;1309;22186;-85
2022/10/28 11:01:03;;;;;;;7.20;2.70;;;;;;;;;;106656;1309;22148;-83
2022/10/28 11:03:35;;;;;;;9.40;2.40;;;;;;;;;;106910;1293;22832;-84
2022/10/28 11:06:04;;;;;;;11.10;2.50;;;;;;;;;;106633;1310;22079;-84
2022/10/28 11:08:33;;;;;;;8.70;2.20;;;;;;;;;;106607;1311;22730;-84
2022/10/28 11:11:13;;;;;;;11.30;2.70;;;;;;;;;;106493;1313;22061;-83
2022/10/28 11:13:43;;;;;;;12.70;2.40;;;;;;;;;;106554;1312;22173;-83
2022/10/28 11:16:22;;;;;;;10.70;2.50;;;;;;;;;;106590;1311;22124;-84
2022/10/28 11:18:52;;;;;;;11.90;2.70;;;;;;;;;;106579;1312;22099;-83
2022/10/28 11:21:31;;;;;;;10.10;2.70;;;;;;;;;;106589;1312;22092;-84
2022/10/28 11:24:20;;;;;;;9.80;2.40;;;;;;;;;;106598;1310;22075;-84
2022/10/28 11:26:58;;;;;;;11.10;3.20;;;;;;;;;;106697;1301;22077;-83
2022/10/28 11:29:27;;;;;;;10.40;3.00;;;;;;;;;;106627;1309;22073;-83
2022/10/28 11:32:10;;;;;;;9.20;2.90;;;;;;;;;;106606;1310;22719;-83
2022/10/28 11:34:59;;;;;;;9.60;3.10;;;;;;;;;;106696;1302;22056;-84
2022/10/28 11:37:39;;;;;;;15.90;3.00;;;;;;;;;;106624;1310;22125;-83
2022/10/28 11:40:37;;;;;;;15.40;3.00;;;;;;;;;;106619;1312;22102;-83
2022/10/28 11:43:28;;;;;;;9.50;3.00;;;;;;;;;;106602;1304;22290;-85
2022/10/28 11:47:52;;;;;;;10.50;2.30;;;;;;;;;;100564;1334;545112;-92
2022/10/28 11:50:22;;;;;;;13.60;2.80;;;;;;;;;;102760;1316;22431;-93
2022/10/28 11:53:04;;;;;;;8.10;2.30;;;;;;;;;;102643;1317;22481;-85
2022/10/28 11:55:31;;;;;;;8.20;2.40;;;;;;;;;;102672;1317;26482;-89
2022/10/28 11:57:57;;;;;;;7.00;2.20;;;;;;;;;;102673;1298;22491;-86
2022/10/28 12:00:30;;;;;;;6.70;2.40;;;;;;;;;;102577;1291;146176;-85
2022/10/28 12:02:57;;;;;;;10.40;2.20;;;;;;;;;;102851;1295;25271;-88
2022/10/28 12:05:24;;;;;;;8.60;2.80;;;;;;;;;;102974;1302;22684;-85
2022/10/28 12:08:09;;;;;;;9.00;2.10;;;;;;;;;;102948;1292;24369;-86
2022/10/28 12:10:36;;;;;;;6.50;1.90;;;;;;;;;;103509;1283;22538;-82
2022/10/28 12:13:03;;;;;;;10.10;2.60;;;;;;;;;;103580;1291;25020;-84
2022/10/28 12:15:35;;;;;;;7.10;2.30;;;;;;;;;;103558;1292;25191;-84
2022/10/28 12:18:10;;;;;;;9.30;2.40;;;;;;;;;;103574;1286;22460;-92
2022/10/28 12:20:45;;;;;;;10.30;2.00;;;;;;;;;;103520;1307;24247;-91
2022/10/28 12:23:13;;;;;;;7.80;2.30;;;;;;;;;;103392;1293;22842;-84
2022/10/28 12:25:42;;;;;;;7.10;2.20;;;;;;;;;;103247;1292;22636;-85
2022/10/28 12:28:17;;;;;;;6.80;2.20;;;;;;;;;;103286;1295;25929;-85
2022/10/28 12:30:46;;;;;;;8.40;2.50;;;;;;;;;;103514;1285;24237;-83
2022/10/28 12:33:15;;;;;;;11.20;2.30;;;;;;;;;;103464;1293;22498;-85
2022/10/28 12:36:11;;;;;;;10.20;2.30;;;;;;;;;;103321;1295;22479;-85
2022/10/28 12:38:50;;;;;;;12.50;2.50;;;;;;;;;;103348;1284;24228;-84
2022/10/28 12:41:22;;;;;;;8.90;2.40;;;;;;;;;;103346;1292;23436;-83
2022/10/28 12:43:49;;;;;;;9.20;2.40;;;;;;;;;;103723;1284;23180;-84
2022/10/28 12:46:29;;;;;;;9.80;2.70;;;;;;;;;;103486;1285;22464;-86
2022/10/28 12:48:59;;;;;;;8.50;2.30;;;;;;;;;;103330;1285;22491;-84
2022/10/28 12:51:28;;;;;;;9.90;2.90;;;;;;;;;;103512;1294;24407;-90
2022/10/28 12:53:57;;;;;;;10.90;2.70;;;;;;;;;;103493;1294;25241;-83
2022/10/28 12:56:38;;;;;;;7.40;2.30;;;;;;;;;;103489;1286;22505;-86
2022/10/28 12:59:16;;;;;;;7.70;2.40;;;;;;;;;;103562;1292;24316;-87
2022/10/28 13:01:45;;;;;;;8.70;2.50;;;;;;;;;;103462;1307;22460;-85
2022/10/28 13:04:12;;;;;;;9.00;2.60;;;;;;;;;;103542;1285;25340;-87
2022/10/28 13:06:40;;;;;;;10.60;4.10;;;;;;;;;;103566;1291;22455;-84
2022/10/28 13:09:29;;;;;;;13.00;3.90;;;;;;;;;;103590;1298;22477;-85
2022/10/28 13:12:05;;;;;;;12.00;3.20;;;;;;;;;;103182;1289;25078;-86
2022/10/28 13:14:49;;;;;;;10.20;2.70;;;;;;;;;;103173;1291;22481;-85
2022/10/28 13:17:31;;;;;;;9.00;2.90;;;;;;;;;;103085;1284;22591;-88
2022/10/28 13:20:13;;;;;;;11.20;3.40;;;;;;;;;;103082;1298;25818;-84
2022/10/28 13:22:58;;;;;;;10.50;4.00;;;;;;;;;;103103;1283;22500;-82
2022/10/28 13:25:32;;;;;;;25.40;10.20;;;;;;;;;;103092;1312;24317;-84
2022/10/28 13:27:59;;;;;;;12.70;3.60;;;;;;;;;;103047;1281;24247;-85
2022/10/28 13:30:29;;;;;;;14.10;3.60;;;;;;;;;;102962;1290;22482;-87
2022/10/28 13:33:06;;;;;;;9.30;3.20;;;;;;;;;;102996;1297;22623;-89
2022/10/28 13:35:33;;;;;;;7.40;2.80;;;;;;;;;;103016;1298;22474;-88
2022/10/28 13:38:00;;;;;;;9.60;3.90;;;;;;;;;;102938;1290;24436;-84
2022/10/28 13:40:30;;;;;;;11.60;3.40;;;;;;;;;;102999;1295;22597;-86
2022/10/28 13:42:58;;;;;;;9.90;3.30;;;;;;;;;;103042;1291;22547;-83
2022/10/28 13:45:42;;;;;;;10.20;3.70;;;;;;;;;;103117;1281;25532;-85
2022/10/28 13:48:28;;;;;;;9.50;3.10;;;;;;;;;;103157;1298;22588;-84
2022/10/28 13:51:04;;;;;;;8.90;3.00;;;;;;;;;;103308;1285;22465;-90
2022/10/28 13:53:36;;;;;;;7.80;3.30;;;;;;;;;;103563;1284;22488;-88
2022/10/28 13:56:15;;;;;;;8.30;3.70;;;;;;;;;;103754;1282;22550;-83
2022/10/28 13:58:49;;;;;;;11.40;4.80;;;;;;;;;;103675;1278;21703;-82
2022/10/28 14:01:39;;;;;;;13.10;5.00;;;;;;;;;;103619;1291;22932;-91
2022/10/28 14:04:20;;;;;;;9.30;4.00;;;;;;;;;;103510;1282;23979;-89
2022/10/28 14:06:47;;;;;;;8.60;3.30;;;;;;;;;;103414;1292;22671;-88
2022/10/28 14:09:22;;;;;;;9.20;4.00;;;;;;;;;;103483;1284;22466;-85
2022/10/28 14:12:07;;;;;;;117.00;50.80;;;;;;;;;;103438;1285;25319;-84
2022/10/28 14:14:34;;;;;;;52.20;20.50;;;;;;;;;;103727;1287;22591;-88
2022/10/28 14:17:01;;;;;;;21.60;7.10;;;;;;;;;;103699;1292;25210;-84
2022/10/28 14:19:27;;;;;;;16.70;4.60;;;;;;;;;;103548;1285;22510;-83
2022/10/28 14:22:00;;;;;;;14.70;5.40;;;;;;;;;;103618;1281;24376;-86
2022/10/28 14:24:34;;;;;;;9.00;3.90;;;;;;;;;;103946;1278;21769;-89
2022/10/28 14:27:04;;;;;;;9.70;3.80;;;;;;;;;;103642;1278;24481;-85
2022/10/28 14:29:51;;;;;;;10.50;4.00;;;;;;;;;;103349;1289;25261;-85
2022/10/28 14:32:30;;;;;;;11.50;4.30;;;;;;;;;;103608;1281;25367;-84
2022/10/28 14:35:00;;;;;;;11.80;4.30;;;;;;;;;;106839;1281;22270;-83
2022/10/28 14:37:45;;;;;;;11.90;4.50;;;;;;;;;;106876;1305;22063;-84
2022/10/28 14:40:15;;;;;;;21.80;8.30;;;;;;;;;;106846;1306;22478;-84
2022/10/28 14:42:54;;;;;;;13.80;4.80;;;;;;;;;;106851;1292;22078;-84
2022/10/28 14:45:37;;;;;;;15.60;5.20;;;;;;;;;;106903;1306;22152;-84
2022/10/28 14:48:28;;;;;;;15.70;6.30;;;;;;;;;;106970;1282;22130;-84